AEZ370 LICJ-LIRA
Flight info
| Callsign | AEZ370 |
|---|---|
| Flight time | 0h 49m |
| Altitude | 30000 |
| Route | LURON DCT LAT |
| Aircraft | B738/M-SDE2E3FGHIJ1RWXY/LB1 |
Departure
| Time | 2026-05-04 21:03 |
|---|---|
| Airport | Falcone–Borsellino Airport (LICJ) |
Arrival
| Time | 2026-05-04 21:52 |
|---|---|
| Airport | Ciampino–G. B. Pastine International Airport (LIRA) |
| Time | Latitude | Longitude | Altitude | Speed | Heading |
|---|---|---|---|---|---|
| 2026-05-04 20:22 | 38.18564 | 13.10665 | 64 ft | 0 kts | 337° |
| 2026-05-04 20:47 | 38.18564 | 13.10666 | 64 ft | 2 kts | 337° |
| 2026-05-04 20:48 | 38.18549 | 13.10674 | 57 ft | 2 kts | 336° |
| 2026-05-04 20:48 | 38.18534 | 13.10682 | 55 ft | 2 kts | 338° |
| 2026-05-04 20:48 | 38.18518 | 13.10686 | 59 ft | 2 kts | 7° |
| 2026-05-04 20:48 | 38.18502 | 13.10680 | 57 ft | 2 kts | 32° |
| 2026-05-04 20:49 | 38.18490 | 13.10667 | 55 ft | 2 kts | 55° |
| 2026-05-04 20:49 | 38.18487 | 13.10662 | 55 ft | 0 kts | 62° |
| 2026-05-04 20:53 | 38.18491 | 13.10672 | 64 ft | 6 kts | 65° |
| 2026-05-04 20:53 | 38.18497 | 13.10690 | 61 ft | 0 kts | 66° |
| 2026-05-04 20:54 | 38.18502 | 13.10704 | 63 ft | 7 kts | 66° |
| 2026-05-04 20:54 | 38.18495 | 13.10785 | 64 ft | 11 kts | 108° |
| 2026-05-04 20:54 | 38.18474 | 13.10884 | 60 ft | 11 kts | 95° |
| 2026-05-04 20:54 | 38.18483 | 13.10932 | 57 ft | 0 kts | 69° |
| 2026-05-04 20:59 | 38.18489 | 13.10952 | 63 ft | 8 kts | 69° |
| 2026-05-04 20:59 | 38.18526 | 13.11064 | 59 ft | 16 kts | 67° |
| 2026-05-04 21:00 | 38.18552 | 13.11166 | 57 ft | 10 kts | 100° |
| 2026-05-04 21:00 | 38.18517 | 13.11241 | 61 ft | 11 kts | 97° |
| 2026-05-04 21:00 | 38.18544 | 13.11350 | 61 ft | 15 kts | 66° |
| 2026-05-04 21:00 | 38.18586 | 13.11471 | 58 ft | 15 kts | 66° |
| 2026-05-04 21:01 | 38.18616 | 13.11584 | 63 ft | 13 kts | 86° |
| 2026-05-04 21:01 | 38.18610 | 13.11663 | 65 ft | 8 kts | 96° |
| 2026-05-04 21:01 | 38.18603 | 13.11734 | 66 ft | 8 kts | 97° |
| 2026-05-04 21:01 | 38.18597 | 13.11802 | 61 ft | 8 kts | 97° |
| 2026-05-04 21:02 | 38.18582 | 13.11865 | 64 ft | 7 kts | 127° |
| 2026-05-04 21:02 | 38.18525 | 13.11879 | 64 ft | 12 kts | 212° |
| 2026-05-04 21:02 | 38.18500 | 13.11835 | 68 ft | 0 kts | 246° |
| 2026-05-04 21:03 | 38.18431 | 13.11637 | 65 ft | 65 kts | 247° |
| 2026-05-04 21:03 | 38.18141 | 13.10770 | 70 ft | 144 kts | 248° |
| 2026-05-04 21:03 | 38.17715 | 13.09444 | 626 ft | 168 kts | 246° |
| 2026-05-04 21:03 | 38.17250 | 13.08035 | 1548 ft | 177 kts | 244° |
| 2026-05-04 21:04 | 38.16749 | 13.06599 | 2497 ft | 174 kts | 243° |
| 2026-05-04 21:04 | 38.16239 | 13.05160 | 3091 ft | 190 kts | 244° |
| 2026-05-04 21:04 | 38.15719 | 13.03488 | 3318 ft | 218 kts | 256° |
| 2026-05-04 21:04 | 38.15967 | 13.01516 | 3535 ft | 244 kts | 298° |
| 2026-05-04 21:05 | 38.17052 | 12.99725 | 3811 ft | 265 kts | 308° |
| 2026-05-04 21:05 | 38.18230 | 12.97885 | 4566 ft | 269 kts | 306° |
| 2026-05-04 21:05 | 38.19362 | 12.95994 | 5473 ft | 268 kts | 305° |
| 2026-05-04 21:05 | 38.20433 | 12.94094 | 6335 ft | 268 kts | 304° |
| 2026-05-04 21:06 | 38.21495 | 12.92131 | 7178 ft | 270 kts | 303° |
| 2026-05-04 21:06 | 38.22543 | 12.90138 | 8036 ft | 271 kts | 303° |
| 2026-05-04 21:06 | 38.23581 | 12.88128 | 8923 ft | 273 kts | 303° |
| 2026-05-04 21:06 | 38.24619 | 12.86095 | 9827 ft | 275 kts | 303° |
| 2026-05-04 21:07 | 38.25667 | 12.84032 | 10578 ft | 283 kts | 302° |
| 2026-05-04 21:07 | 38.26778 | 12.81836 | 10805 ft | 309 kts | 302° |
| 2026-05-04 21:07 | 38.28018 | 12.79500 | 11212 ft | 325 kts | 309° |
| 2026-05-04 21:07 | 38.29754 | 12.77620 | 11967 ft | 332 kts | 328° |
| 2026-05-04 21:08 | 38.31846 | 12.76339 | 12892 ft | 334 kts | 333° |
| 2026-05-04 21:08 | 38.33982 | 12.75165 | 13794 ft | 336 kts | 334° |
| 2026-05-04 21:08 | 38.36265 | 12.74497 | 14524 ft | 351 kts | 354° |
| 2026-05-04 21:08 | 38.38724 | 12.74903 | 15279 ft | 365 kts | 12° |
| 2026-05-04 21:09 | 38.41053 | 12.76320 | 16043 ft | 376 kts | 26° |
| 2026-05-04 21:09 | 38.43309 | 12.78054 | 16788 ft | 382 kts | 28° |
| 2026-05-04 21:09 | 38.45573 | 12.79861 | 17540 ft | 387 kts | 29° |
| 2026-05-04 21:09 | 38.47871 | 12.81704 | 18268 ft | 392 kts | 29° |
| 2026-05-04 21:10 | 38.50197 | 12.83558 | 18909 ft | 397 kts | 28° |
| 2026-05-04 21:10 | 38.52552 | 12.85421 | 19598 ft | 399 kts | 28° |
| 2026-05-04 21:10 | 38.54931 | 12.87292 | 20278 ft | 402 kts | 28° |
| 2026-05-04 21:10 | 38.57330 | 12.89170 | 20934 ft | 406 kts | 28° |
| 2026-05-04 21:11 | 38.59747 | 12.91060 | 21568 ft | 410 kts | 28° |
| 2026-05-04 21:11 | 38.62193 | 12.92972 | 22194 ft | 413 kts | 28° |
| 2026-05-04 21:11 | 38.64659 | 12.94901 | 22799 ft | 418 kts | 27° |
| 2026-05-04 21:11 | 38.67152 | 12.96852 | 23355 ft | 422 kts | 27° |
| 2026-05-04 21:12 | 38.69664 | 12.98820 | 23908 ft | 426 kts | 27° |
| 2026-05-04 21:12 | 38.72202 | 13.00812 | 24415 ft | 428 kts | 27° |
| 2026-05-04 21:12 | 38.74750 | 13.02814 | 24913 ft | 431 kts | 27° |
| 2026-05-04 21:12 | 38.77316 | 13.04831 | 25391 ft | 435 kts | 27° |
| 2026-05-04 21:13 | 38.79904 | 13.06866 | 25857 ft | 438 kts | 27° |
| 2026-05-04 21:13 | 38.82511 | 13.08918 | 26318 ft | 441 kts | 27° |
| 2026-05-04 21:13 | 38.85177 | 13.10744 | 26731 ft | 439 kts | 15° |
| 2026-05-04 21:13 | 38.88173 | 13.11517 | 27168 ft | 432 kts | 358° |
| 2026-05-04 21:14 | 38.91128 | 13.11410 | 27659 ft | 430 kts | 353° |
| 2026-05-04 21:14 | 38.94118 | 13.11173 | 28119 ft | 431 kts | 352° |
| 2026-05-04 21:14 | 38.97109 | 13.10910 | 28678 ft | 431 kts | 352° |
| 2026-05-04 21:14 | 39.00097 | 13.10650 | 29331 ft | 428 kts | 352° |
| 2026-05-04 21:15 | 39.03063 | 13.10405 | 29971 ft | 426 kts | 352° |
| 2026-05-04 21:15 | 39.06038 | 13.10169 | 30118 ft | 430 kts | 352° |
| 2026-05-04 21:15 | 39.11993 | 13.09727 | 30133 ft | 427 kts | 352° |
| 2026-05-04 21:16 | 39.17925 | 13.09301 | 30143 ft | 427 kts | 352° |
| 2026-05-04 21:16 | 39.23862 | 13.08877 | 30139 ft | 428 kts | 352° |
| 2026-05-04 21:17 | 39.29813 | 13.08451 | 30147 ft | 428 kts | 352° |
| 2026-05-04 21:17 | 39.35764 | 13.08024 | 30136 ft | 428 kts | 352° |
| 2026-05-04 21:18 | 39.41711 | 13.07596 | 30133 ft | 428 kts | 352° |
| 2026-05-04 21:18 | 39.47652 | 13.07168 | 30135 ft | 427 kts | 352° |
| 2026-05-04 21:19 | 39.53545 | 13.06743 | 30153 ft | 427 kts | 352° |
| 2026-05-04 21:19 | 39.59476 | 13.06314 | 30134 ft | 426 kts | 352° |
| 2026-05-04 21:20 | 39.65391 | 13.05885 | 30130 ft | 425 kts | 352° |
| 2026-05-04 21:20 | 39.71294 | 13.05457 | 30130 ft | 424 kts | 352° |
| 2026-05-04 21:21 | 39.77192 | 13.05027 | 30137 ft | 425 kts | 352° |
| 2026-05-04 21:21 | 39.83096 | 13.04597 | 30130 ft | 425 kts | 352° |
| 2026-05-04 21:22 | 39.89009 | 13.04165 | 30132 ft | 425 kts | 352° |
| 2026-05-04 21:22 | 39.94891 | 13.03735 | 30131 ft | 426 kts | 352° |
| 2026-05-04 21:23 | 40.00812 | 13.03302 | 30130 ft | 426 kts | 352° |
| 2026-05-04 21:23 | 40.06730 | 13.02868 | 30131 ft | 426 kts | 352° |
| 2026-05-04 21:24 | 40.12656 | 13.02432 | 30131 ft | 426 kts | 352° |
| 2026-05-04 21:24 | 40.18582 | 13.01996 | 30144 ft | 426 kts | 352° |
| 2026-05-04 21:25 | 40.24498 | 13.01560 | 30129 ft | 426 kts | 352° |
| 2026-05-04 21:25 | 40.30408 | 13.01124 | 30128 ft | 425 kts | 352° |
| 2026-05-04 21:26 | 40.36311 | 13.00687 | 30130 ft | 425 kts | 352° |
| 2026-05-04 21:26 | 40.41210 | 13.00324 | 30146 ft | 424 kts | 352° |
| 2026-05-04 21:27 | 40.47103 | 12.99887 | 30129 ft | 423 kts | 352° |
| 2026-05-04 21:27 | 40.53934 | 12.99379 | 30130 ft | 422 kts | 352° |
| 2026-05-04 21:28 | 40.58838 | 12.99014 | 30131 ft | 422 kts | 352° |
| 2026-05-04 21:28 | 40.64708 | 12.98575 | 30135 ft | 422 kts | 352° |
| 2026-05-04 21:29 | 40.70577 | 12.98134 | 29571 ft | 427 kts | 352° |
| 2026-05-04 21:29 | 40.73543 | 12.97912 | 29020 ft | 426 kts | 352° |
| 2026-05-04 21:29 | 40.76506 | 12.97691 | 28489 ft | 426 kts | 352° |
| 2026-05-04 21:30 | 40.79473 | 12.97469 | 27963 ft | 427 kts | 352° |
| 2026-05-04 21:30 | 40.82441 | 12.97246 | 27450 ft | 427 kts | 352° |
| 2026-05-04 21:30 | 40.85410 | 12.97023 | 26957 ft | 428 kts | 352° |
| 2026-05-04 21:30 | 40.88400 | 12.96798 | 26461 ft | 429 kts | 352° |
| 2026-05-04 21:31 | 40.94374 | 12.96347 | 25495 ft | 432 kts | 353° |
| 2026-05-04 21:31 | 40.97383 | 12.96121 | 25022 ft | 432 kts | 353° |
| 2026-05-04 21:31 | 41.00383 | 12.95894 | 24555 ft | 432 kts | 353° |
| 2026-05-04 21:32 | 41.03379 | 12.95669 | 24097 ft | 430 kts | 353° |
| 2026-05-04 21:32 | 41.06359 | 12.95445 | 23638 ft | 428 kts | 353° |
| 2026-05-04 21:32 | 41.09323 | 12.95222 | 23097 ft | 424 kts | 353° |
| 2026-05-04 21:32 | 41.12222 | 12.95003 | 22577 ft | 421 kts | 353° |
| 2026-05-04 21:33 | 41.15137 | 12.94783 | 22061 ft | 418 kts | 353° |
| 2026-05-04 21:33 | 41.18032 | 12.94563 | 21551 ft | 415 kts | 353° |
| 2026-05-04 21:33 | 41.20904 | 12.94345 | 21037 ft | 412 kts | 353° |
| 2026-05-04 21:33 | 41.23753 | 12.94128 | 20560 ft | 409 kts | 353° |
| 2026-05-04 21:34 | 41.26588 | 12.93912 | 20082 ft | 407 kts | 353° |
| 2026-05-04 21:34 | 41.29407 | 12.93697 | 19605 ft | 405 kts | 353° |
| 2026-05-04 21:34 | 41.32210 | 12.93483 | 19138 ft | 403 kts | 353° |
| 2026-05-04 21:34 | 41.35003 | 12.93270 | 18675 ft | 401 kts | 353° |
| 2026-05-04 21:35 | 41.37775 | 12.93058 | 18182 ft | 399 kts | 353° |
| 2026-05-04 21:35 | 41.40538 | 12.92846 | 17659 ft | 396 kts | 354° |
| 2026-05-04 21:35 | 41.43287 | 12.92636 | 17140 ft | 393 kts | 354° |
| 2026-05-04 21:35 | 41.46009 | 12.92428 | 16628 ft | 390 kts | 354° |
| 2026-05-04 21:36 | 41.48712 | 12.92221 | 16135 ft | 387 kts | 354° |
| 2026-05-04 21:36 | 41.51387 | 12.92016 | 15642 ft | 383 kts | 354° |
| 2026-05-04 21:36 | 41.54006 | 12.91798 | 15153 ft | 379 kts | 352° |
| 2026-05-04 21:36 | 41.56564 | 12.91114 | 14678 ft | 373 kts | 342° |
| 2026-05-04 21:37 | 41.59039 | 12.90135 | 14210 ft | 369 kts | 341° |
| 2026-05-04 21:37 | 41.61487 | 12.89113 | 13717 ft | 367 kts | 341° |
| 2026-05-04 21:37 | 41.63916 | 12.88102 | 13195 ft | 364 kts | 341° |
| 2026-05-04 21:37 | 41.66339 | 12.87113 | 12679 ft | 362 kts | 341° |
| 2026-05-04 21:38 | 41.68726 | 12.86156 | 12316 ft | 353 kts | 342° |
| 2026-05-04 21:38 | 41.71050 | 12.85237 | 12062 ft | 343 kts | 342° |
| 2026-05-04 21:38 | 41.73312 | 12.84348 | 11805 ft | 334 kts | 342° |
| 2026-05-04 21:38 | 41.75488 | 12.83496 | 11555 ft | 326 kts | 342° |
| 2026-05-04 21:39 | 41.77638 | 12.82655 | 11305 ft | 318 kts | 342° |
| 2026-05-04 21:39 | 41.79750 | 12.81829 | 11055 ft | 312 kts | 342° |
| 2026-05-04 21:39 | 41.81805 | 12.81025 | 10815 ft | 305 kts | 342° |
| 2026-05-04 21:39 | 41.83830 | 12.80232 | 10569 ft | 300 kts | 342° |
| 2026-05-04 21:40 | 41.85814 | 12.79455 | 10324 ft | 296 kts | 341° |
| 2026-05-04 21:40 | 41.87770 | 12.78688 | 10129 ft | 290 kts | 342° |
| 2026-05-04 21:40 | 41.89691 | 12.77934 | 9890 ft | 284 kts | 341° |
| 2026-05-04 21:40 | 41.91557 | 12.77202 | 9644 ft | 274 kts | 341° |
| 2026-05-04 21:41 | 41.93362 | 12.76494 | 9397 ft | 266 kts | 341° |
| 2026-05-04 21:41 | 41.95108 | 12.75807 | 9155 ft | 258 kts | 341° |
| 2026-05-04 21:41 | 41.96788 | 12.75147 | 8902 ft | 251 kts | 341° |
| 2026-05-04 21:41 | 41.98454 | 12.74491 | 8643 ft | 247 kts | 341° |
| 2026-05-04 21:42 | 42.00085 | 12.73849 | 8387 ft | 243 kts | 341° |
| 2026-05-04 21:42 | 42.01695 | 12.73215 | 8135 ft | 239 kts | 341° |
| 2026-05-04 21:42 | 42.03282 | 12.72590 | 7887 ft | 236 kts | 341° |
| 2026-05-04 21:42 | 42.04863 | 12.71966 | 7639 ft | 236 kts | 340° |
| 2026-05-04 21:43 | 42.06277 | 12.70939 | 7363 ft | 229 kts | 308° |
| 2026-05-04 21:43 | 42.07023 | 12.69116 | 7156 ft | 220 kts | 283° |
| 2026-05-04 21:43 | 42.07404 | 12.67135 | 6926 ft | 218 kts | 278° |
| 2026-05-04 21:43 | 42.07730 | 12.65143 | 6695 ft | 217 kts | 278° |
| 2026-05-04 21:44 | 42.08060 | 12.63164 | 6589 ft | 217 kts | 278° |
| 2026-05-04 21:44 | 42.08392 | 12.61204 | 6501 ft | 216 kts | 278° |
| 2026-05-04 21:44 | 42.08728 | 12.59249 | 6377 ft | 213 kts | 278° |
| 2026-05-04 21:44 | 42.09061 | 12.57324 | 6261 ft | 209 kts | 278° |
| 2026-05-04 21:45 | 42.09391 | 12.55420 | 6122 ft | 207 kts | 278° |
| 2026-05-04 21:45 | 42.09426 | 12.53543 | 5997 ft | 196 kts | 247° |
| 2026-05-04 21:45 | 42.08680 | 12.52118 | 5941 ft | 184 kts | 217° |
| 2026-05-04 21:45 | 42.07556 | 12.51322 | 5742 ft | 185 kts | 199° |
| 2026-05-04 21:46 | 42.06324 | 12.50712 | 5352 ft | 190 kts | 199° |
| 2026-05-04 21:46 | 42.05080 | 12.50100 | 4988 ft | 191 kts | 199° |
| 2026-05-04 21:46 | 42.03821 | 12.49481 | 4614 ft | 193 kts | 199° |
| 2026-05-04 21:46 | 42.02575 | 12.48868 | 4242 ft | 192 kts | 199° |
| 2026-05-04 21:47 | 42.01320 | 12.48251 | 3863 ft | 192 kts | 199° |
| 2026-05-04 21:47 | 42.00058 | 12.47631 | 3492 ft | 193 kts | 199° |
| 2026-05-04 21:47 | 41.98791 | 12.47058 | 3104 ft | 192 kts | 189° |
| 2026-05-04 21:47 | 41.97543 | 12.47351 | 3013 ft | 179 kts | 155° |
| 2026-05-04 21:48 | 41.96429 | 12.48115 | 2999 ft | 180 kts | 154° |
| 2026-05-04 21:48 | 41.95316 | 12.48871 | 2998 ft | 178 kts | 154° |
| 2026-05-04 21:48 | 41.94219 | 12.49616 | 2998 ft | 175 kts | 154° |
| 2026-05-04 21:48 | 41.93158 | 12.50346 | 2945 ft | 168 kts | 154° |
| 2026-05-04 21:49 | 41.92134 | 12.51083 | 2786 ft | 165 kts | 152° |
| 2026-05-04 21:49 | 41.91129 | 12.51780 | 2679 ft | 158 kts | 155° |
| 2026-05-04 21:49 | 41.90175 | 12.52451 | 2506 ft | 153 kts | 154° |
| 2026-05-04 21:49 | 41.89229 | 12.53078 | 2300 ft | 151 kts | 155° |
| 2026-05-04 21:50 | 41.88289 | 12.53734 | 2015 ft | 152 kts | 153° |
| 2026-05-04 21:50 | 41.87379 | 12.54381 | 1777 ft | 147 kts | 154° |
| 2026-05-04 21:50 | 41.86484 | 12.54966 | 1598 ft | 140 kts | 154° |
| 2026-05-04 21:50 | 41.85629 | 12.55561 | 1428 ft | 137 kts | 155° |
| 2026-05-04 21:51 | 41.84769 | 12.56119 | 1273 ft | 137 kts | 154° |
| 2026-05-04 21:51 | 41.83924 | 12.56710 | 1117 ft | 138 kts | 152° |
| 2026-05-04 21:51 | 41.83070 | 12.57326 | 934 ft | 139 kts | 153° |
| 2026-05-04 21:51 | 41.82205 | 12.57915 | 736 ft | 140 kts | 153° |
| 2026-05-04 21:52 | 41.81337 | 12.58520 | 567 ft | 141 kts | 153° |
| 2026-05-04 21:52 | 41.80494 | 12.59099 | 394 ft | 128 kts | 153° |
| 2026-05-04 21:52 | 41.79850 | 12.59547 | 391 ft | 59 kts | 153° |
| 2026-05-04 21:52 | 41.79660 | 12.59679 | 388 ft | 20 kts | 153° |
| 2026-05-04 21:53 | 41.79536 | 12.59763 | 388 ft | 20 kts | 153° |
| 2026-05-04 21:53 | 41.79407 | 12.59851 | 388 ft | 24 kts | 153° |
| 2026-05-04 21:53 | 41.79239 | 12.59965 | 390 ft | 27 kts | 152° |
| 2026-05-04 21:53 | 41.79093 | 12.60057 | 390 ft | 17 kts | 179° |
| 2026-05-04 21:54 | 41.79030 | 12.59972 | 391 ft | 13 kts | 256° |
| 2026-05-04 21:54 | 41.79060 | 12.59877 | 391 ft | 11 kts | 335° |
| 2026-05-04 21:54 | 41.79130 | 12.59834 | 391 ft | 11 kts | 335° |
| 2026-05-04 21:54 | 41.79202 | 12.59788 | 391 ft | 13 kts | 333° |
| 2026-05-04 21:55 | 41.79292 | 12.59725 | 391 ft | 16 kts | 332° |
| 2026-05-04 21:55 | 41.79401 | 12.59647 | 391 ft | 19 kts | 332° |
| 2026-05-04 21:55 | 41.79516 | 12.59566 | 391 ft | 19 kts | 334° |
| 2026-05-04 21:55 | 41.79631 | 12.59491 | 391 ft | 18 kts | 334° |
| 2026-05-04 21:56 | 41.79740 | 12.59414 | 391 ft | 17 kts | 332° |
| 2026-05-04 21:56 | 41.79846 | 12.59343 | 391 ft | 17 kts | 334° |
| 2026-05-04 21:56 | 41.79947 | 12.59274 | 392 ft | 16 kts | 332° |
| 2026-05-04 21:56 | 41.80025 | 12.59215 | 391 ft | 9 kts | 311° |
| 2026-05-04 21:57 | 41.80016 | 12.59139 | 392 ft | 7 kts | 244° |
| 2026-05-04 21:57 | 41.80013 | 12.59124 | 392 ft | 1 kts | 273° |
| 2026-05-04 21:57 | 41.80014 | 12.59121 | 392 ft | 0 kts | 276° |